createdAt,value
2023-04-07T00:00:20.629Z,20.00
2023-04-07T00:05:22.285Z,17.63
2023-04-07T00:10:24.833Z,14.55
2023-04-07T00:15:26.624Z,15.10
2023-04-07T00:20:28.418Z,18.70
2023-04-07T00:25:30.026Z,17.15
2023-04-07T00:30:31.673Z,16.98
2023-04-07T00:35:33.360Z,13.93
2023-04-07T00:40:35.028Z,13.00
2023-04-07T00:45:38.112Z,17.17
2023-04-07T00:50:40.021Z,12.95
2023-04-07T00:55:41.720Z,15.52
2023-04-07T01:00:55.396Z,14.65
2023-04-07T01:06:02.176Z,16.13
2023-04-07T01:11:13.319Z,13.85
2023-04-07T01:16:30.466Z,14.82
2023-04-07T01:21:35.164Z,15.95
2023-04-07T01:26:38.217Z,16.70
2023-04-07T01:31:42.109Z,14.50
2023-04-07T01:36:47.038Z,14.25
2023-04-07T01:41:50.824Z,15.25
2023-04-07T01:46:53.110Z,14.68
2023-04-07T01:51:56.100Z,17.58
2023-04-07T01:56:57.785Z,14.35
2023-04-07T02:02:00.647Z,16.35
2023-04-07T02:07:09.644Z,15.82
2023-04-07T02:12:17.404Z,15.38
2023-04-07T02:17:34.915Z,14.40
2023-04-07T02:22:38.579Z,15.52
2023-04-07T02:27:40.289Z,13.25
2023-04-07T02:32:42.097Z,13.20
2023-04-07T02:37:45.541Z,16.92
2023-04-07T02:42:48.394Z,16.40
2023-04-07T02:47:50.174Z,16.08
2023-04-07T02:52:52.991Z,14.38
2023-04-07T02:57:54.693Z,21.23
2023-04-07T03:03:10.189Z,12.35
2023-04-07T03:08:14.962Z,16.45
2023-04-07T03:13:19.122Z,13.93
2023-04-07T03:18:20.974Z,13.70
2023-04-07T03:23:24.036Z,16.02
2023-04-07T03:28:26.598Z,14.82
2023-04-07T03:33:29.604Z,14.88
2023-04-07T03:38:31.738Z,14.88
2023-04-07T03:43:37.006Z,15.35
2023-04-07T03:48:39.169Z,13.75
2023-04-07T03:53:43.277Z,16.60
2023-04-07T03:58:59.982Z,14.02
2023-04-07T04:04:06.442Z,17.58
2023-04-07T04:09:08.192Z,16.63
2023-04-07T04:14:14.450Z,15.40
2023-04-07T04:19:18.271Z,16.13
2023-04-07T04:24:20.196Z,14.05
2023-04-07T04:29:23.741Z,13.60
2023-04-07T04:34:27.611Z,17.05
2023-04-07T04:39:30.602Z,15.07
2023-04-07T04:44:33.081Z,17.92
2023-04-07T04:49:37.366Z,14.45
2023-04-07T04:54:39.682Z,17.20
2023-04-07T04:59:42.623Z,14.75
2023-04-07T05:04:44.492Z,17.42
2023-04-07T05:10:02.605Z,16.92
2023-04-07T05:15:07.278Z,22.33
2023-04-07T05:20:10.407Z,19.45
2023-04-07T05:25:15.083Z,16.13
2023-04-07T05:30:19.834Z,16.40
2023-04-07T05:35:21.602Z,16.77
2023-04-07T05:40:30.347Z,18.80
2023-04-07T05:45:35.595Z,18.05
2023-04-07T05:50:37.665Z,20.10
2023-04-07T05:55:43.809Z,19.42
2023-04-07T06:00:50.857Z,16.80
2023-04-07T06:05:53.596Z,13.70
2023-04-07T06:10:56.842Z,14.63
2023-04-07T06:15:58.705Z,15.90
2023-04-07T06:21:00.795Z,15.52
2023-04-07T06:26:02.493Z,19.20
2023-04-07T06:31:05.212Z,17.15
2023-04-07T06:36:07.602Z,19.00
2023-04-07T06:41:16.886Z,13.93
2023-04-07T06:46:19.308Z,17.05
2023-04-07T06:51:21.096Z,15.27
2023-04-07T06:56:23.300Z,16.88
2023-04-07T07:01:24.952Z,12.43
2023-04-07T07:06:27.482Z,18.15
2023-04-07T07:11:29.250Z,17.08
2023-04-07T07:16:31.136Z,15.98
2023-04-07T07:21:32.988Z,15.27
2023-04-07T07:26:34.642Z,16.90
2023-04-07T07:31:36.335Z,17.67
2023-04-07T07:36:38.056Z,14.45
2023-04-07T07:41:40.372Z,11.13
2023-04-07T07:46:42.033Z,19.23
2023-04-07T07:51:44.195Z,16.70
2023-04-07T07:56:45.842Z,12.60
2023-04-07T08:01:47.663Z,8.98
2023-04-07T08:06:50.886Z,16.90
2023-04-07T08:11:52.815Z,14.77
2023-04-07T08:16:54.661Z,9.98
2023-04-07T08:21:56.990Z,13.18
2023-04-07T08:26:58.672Z,19.70
2023-04-07T08:32:00.477Z,8.65
2023-04-07T08:37:02.799Z,12.35
2023-04-07T08:42:04.655Z,14.25
2023-04-07T08:47:08.030Z,9.88
2023-04-07T08:52:13.220Z,14.73
2023-04-07T08:57:16.629Z,15.10
2023-04-07T09:02:19.569Z,12.93
2023-04-07T09:07:21.365Z,11.07
2023-04-07T09:12:23.052Z,12.10
2023-04-07T09:17:29.159Z,13.02
2023-04-07T09:22:47.252Z,10.75
2023-04-07T09:27:59.419Z,12.57
2023-04-07T09:33:02.066Z,10.40
2023-04-07T09:38:03.747Z,14.38
2023-04-07T09:43:06.467Z,18.88
2023-04-07T09:48:19.385Z,11.55
2023-04-07T09:53:23.267Z,11.45
2023-04-07T09:58:25.149Z,12.32
2023-04-07T10:03:28.283Z,12.95
2023-04-07T10:08:36.308Z,20.63
2023-04-07T10:13:40.770Z,13.02
2023-04-07T10:18:42.834Z,13.45
2023-04-07T10:23:59.986Z,18.35
2023-04-07T10:29:08.391Z,18.73
2023-04-07T10:34:10.035Z,20.52
2023-04-07T10:39:11.824Z,19.30
2023-04-07T10:44:43.060Z,16.27
2023-04-07T10:50:18.231Z,15.35
2023-04-07T10:55:39.182Z,18.02
2023-04-07T11:00:41.657Z,17.48
2023-04-07T11:05:43.633Z,19.58
2023-04-07T11:10:48.255Z,16.17
2023-04-07T11:15:53.928Z,16.75
2023-04-07T11:21:00.182Z,15.90
2023-04-07T11:26:03.176Z,15.13
2023-04-07T11:31:04.980Z,15.25
2023-04-07T11:36:07.664Z,15.73
2023-04-07T11:41:16.024Z,14.40
2023-04-07T11:46:18.940Z,13.43
2023-04-07T11:51:25.283Z,12.27
2023-04-07T11:56:28.086Z,39.97
2023-04-07T12:01:41.450Z,17.02
2023-04-07T12:06:44.866Z,13.70
2023-04-07T12:11:50.250Z,20.83
2023-04-07T12:16:53.357Z,17.50
2023-04-07T12:21:56.365Z,13.43
2023-04-07T12:26:58.233Z,16.17
2023-04-07T12:32:00.795Z,18.50
2023-04-07T12:37:02.454Z,13.10
2023-04-07T12:42:05.214Z,13.93
2023-04-07T12:47:07.056Z,15.27
2023-04-07T12:52:08.949Z,16.25
2023-04-07T12:57:11.109Z,18.25
2023-04-07T13:02:13.930Z,14.30
2023-04-07T13:07:16.282Z,15.68
2023-04-07T13:12:17.922Z,14.48
2023-04-07T13:17:19.724Z,15.48
2023-04-07T13:22:24.326Z,16.80
2023-04-07T13:27:27.481Z,17.30
2023-04-07T13:32:29.306Z,19.02
2023-04-07T13:37:31.154Z,18.33
2023-04-07T13:42:33.027Z,22.67
2023-04-07T13:47:35.418Z,20.23
2023-04-07T13:52:37.514Z,25.10
2023-04-07T13:57:39.392Z,16.58
2023-04-07T14:02:41.388Z,18.95
2023-04-07T14:07:43.191Z,18.80
2023-04-07T14:12:45.110Z,18.20
2023-04-07T14:17:47.044Z,18.17
2023-04-07T14:22:48.795Z,15.10
2023-04-07T14:27:52.244Z,17.25
2023-04-07T14:32:53.963Z,14.05
2023-04-07T14:37:56.853Z,12.20
2023-04-07T14:48:04.113Z,12.68
2023-04-07T14:53:06.687Z,13.45
2023-04-07T14:58:08.551Z,12.95
2023-04-07T15:03:14.362Z,15.90
2023-04-07T15:08:19.434Z,14.15
2023-04-07T15:13:21.838Z,14.32
2023-04-07T15:18:25.203Z,14.10
2023-04-07T15:23:27.045Z,34.22
2023-04-07T15:28:32.701Z,13.15
2023-04-07T15:33:37.807Z,16.70
2023-04-07T15:38:40.839Z,16.92
2023-04-07T15:43:43.184Z,15.93
2023-04-07T15:48:46.165Z,15.55
2023-04-07T15:53:48.595Z,18.63
2023-04-07T15:58:51.073Z,20.50
2023-04-07T16:03:54.163Z,14.70
2023-04-07T16:08:56.965Z,23.27
2023-04-07T16:13:59.281Z,16.10
2023-04-07T16:19:02.453Z,17.67
2023-04-07T16:24:04.469Z,17.95
2023-04-07T16:29:06.574Z,18.90
2023-04-07T16:34:08.556Z,18.77
2023-04-07T16:39:10.795Z,24.52
2023-04-07T16:44:12.747Z,18.50
2023-04-07T16:49:14.524Z,17.75
2023-04-07T16:54:16.191Z,17.38
2023-04-07T16:59:17.859Z,22.38
2023-04-07T17:04:19.645Z,21.73
2023-04-07T17:09:21.494Z,20.58
2023-04-07T17:14:23.354Z,22.77
2023-04-07T17:19:25.189Z,21.27
2023-04-07T17:24:26.885Z,32.03
2023-04-07T17:29:31.246Z,30.05
2023-04-07T17:34:33.085Z,31.50
2023-04-07T17:39:34.966Z,19.35
2023-04-07T17:44:37.487Z,21.98
2023-04-07T17:49:39.701Z,21.65
2023-04-07T17:54:41.773Z,26.40
2023-04-07T17:59:43.526Z,24.02
2023-04-07T18:04:45.652Z,23.98
2023-04-07T18:09:47.721Z,18.02
2023-04-07T18:14:49.474Z,22.40
2023-04-07T18:19:51.548Z,15.63
2023-04-07T18:24:53.214Z,18.40
2023-04-07T18:29:56.212Z,19.45
2023-04-07T18:34:57.965Z,17.08
2023-04-07T18:39:59.659Z,23.00
2023-04-07T18:45:01.542Z,21.48
2023-04-07T18:50:03.600Z,21.77
2023-04-07T18:55:06.060Z,20.15
2023-04-07T19:00:08.728Z,16.48
2023-04-07T19:05:13.498Z,15.82
2023-04-07T19:10:15.098Z,21.73
2023-04-07T19:15:16.810Z,19.95
2023-04-07T19:20:18.550Z,17.70
2023-04-07T19:25:20.395Z,20.88
2023-04-07T19:30:22.244Z,18.15
2023-04-07T19:35:23.909Z,16.80
2023-04-07T19:40:26.117Z,20.17
2023-04-07T19:45:27.847Z,18.73
2023-04-07T19:50:29.570Z,15.98
2023-04-07T19:55:31.217Z,19.85
2023-04-07T20:00:35.002Z,15.60
2023-04-07T20:05:37.178Z,17.45
2023-04-07T20:10:39.164Z,21.52
2023-04-07T20:15:41.012Z,24.58
2023-04-07T20:20:42.616Z,33.58
2023-04-07T20:25:44.421Z,26.13
2023-04-07T20:30:46.380Z,20.75
2023-04-07T20:35:49.084Z,31.77
2023-04-07T20:40:51.133Z,22.38
2023-04-07T20:45:53.521Z,17.73
2023-04-07T20:50:55.206Z,25.30
2023-04-07T20:55:59.044Z,21.95
2023-04-07T21:01:01.554Z,24.13
2023-04-07T21:06:04.746Z,22.30
2023-04-07T21:11:06.524Z,25.75
2023-04-07T21:16:08.662Z,24.75
2023-04-07T21:21:10.380Z,33.83
2023-04-07T21:26:12.068Z,40.45
2023-04-07T21:31:24.160Z,84.95
2023-04-07T21:36:27.016Z,45.53
2023-04-07T21:41:28.679Z,36.97
2023-04-07T21:46:30.893Z,32.03
2023-04-07T21:51:33.733Z,34.58
2023-04-07T21:56:35.840Z,34.95
2023-04-07T22:01:37.636Z,34.83
2023-04-07T22:06:39.605Z,41.60
2023-04-07T22:11:41.396Z,47.40
2023-04-07T22:16:43.127Z,45.75
2023-04-07T22:21:45.355Z,49.50
2023-04-07T22:26:47.000Z,51.25
2023-04-07T22:31:48.805Z,55.40
2023-04-07T22:36:50.528Z,59.17
2023-04-07T22:41:52.113Z,54.92
2023-04-07T22:46:54.021Z,53.40
2023-04-07T22:51:57.103Z,51.33
2023-04-07T22:56:58.918Z,54.67
2023-04-07T23:02:00.843Z,60.28
2023-04-07T23:07:02.746Z,54.50
2023-04-07T23:12:04.514Z,54.70
2023-04-07T23:17:06.776Z,28.58
2023-04-07T23:22:08.585Z,23.92
2023-04-07T23:27:10.387Z,13.10
2023-04-07T23:32:12.244Z,10.35
2023-04-07T23:37:21.295Z,8.77
2023-04-07T23:42:24.164Z,7.82
2023-04-07T23:47:26.408Z,7.90
2023-04-07T23:52:28.254Z,7.43
2023-04-07T23:57:30.061Z,10.73
